Terminal Aerodrome Forecast
Issued by NWS

Home | Current Version | Previous Version | Text Only | Print | Product List | Glossary On
Versions: 1 2 3 4 5 6 7 8 9 10 11 12 13 14 15 16 17 18
000
FTUS44 KEWX 041219 AAA
TAFSSF
TAF AMD
KSSF 041219Z 0412/0512 14007KT 5SM BR BKN012
     FM041900 13015G25KT P6SM BKN040
     FM050400 13013KT P6SM BKN015=

USA.gov is the U.S. government's official web portal to all federal, state and local government web resources and services.